sensor_id;sensor_type;location;lat;lon;timestamp;pressure;altitude;pressure_sealevel;temperature;humidity
39405;BME280;25121;51.090;17.038;2023-03-15T00:00:52;99108.47;;;6.29;62.34
39405;BME280;25121;51.090;17.038;2023-03-15T00:02:13;99117.66;;;6.26;62.26
39405;BME280;25121;51.090;17.038;2023-03-15T00:03:35;99115.97;;;6.25;62.30
39405;BME280;25121;51.090;17.038;2023-03-15T00:04:57;99115.00;;;6.18;62.32
39405;BME280;25121;51.090;17.038;2023-03-15T00:06:19;99126.34;;;6.20;62.43
39405;BME280;25121;51.090;17.038;2023-03-15T00:07:41;99125.00;;;6.16;62.39
39405;BME280;25121;51.090;17.038;2023-03-15T00:09:03;99125.53;;;6.11;62.38
39405;BME280;25121;51.090;17.038;2023-03-15T00:10:25;99141.00;;;6.16;62.27
39405;BME280;25121;51.090;17.038;2023-03-15T00:11:49;99135.34;;;6.11;62.44
39405;BME280;25121;51.090;17.038;2023-03-15T00:13:12;99144.38;;;6.10;62.28
39405;BME280;25121;51.090;17.038;2023-03-15T00:14:35;99140.69;;;6.11;62.34
39405;BME280;25121;51.090;17.038;2023-03-15T00:15:59;99137.03;;;6.12;62.13
39405;BME280;25121;51.090;17.038;2023-03-15T00:17:20;99138.19;;;6.09;62.24
39405;BME280;25121;51.090;17.038;2023-03-15T00:18:46;99138.19;;;6.09;62.31
39405;BME280;25121;51.090;17.038;2023-03-15T00:20:09;99133.03;;;6.08;62.29
39405;BME280;25121;51.090;17.038;2023-03-15T00:21:31;99124.22;;;5.99;62.29
39405;BME280;25121;51.090;17.038;2023-03-15T00:22:53;99142.19;;;6.05;62.13
39405;BME280;25121;51.090;17.038;2023-03-15T00:24:15;99124.22;;;5.99;62.31
39405;BME280;25121;51.090;17.038;2023-03-15T00:25:38;99143.38;;;6.02;62.30
39405;BME280;25121;51.090;17.038;2023-03-15T00:27:00;99139.88;;;6.02;62.14
39405;BME280;25121;51.090;17.038;2023-03-15T00:28:22;99140.03;;;6.00;62.27
39405;BME280;25121;51.090;17.038;2023-03-15T00:29:46;99137.56;;;5.99;62.29
39405;BME280;25121;51.090;17.038;2023-03-15T00:31:16;99140.19;;;5.91;62.33
39405;BME280;25121;51.090;17.038;2023-03-15T00:32:38;99155.56;;;5.97;62.35
39405;BME280;25121;51.090;17.038;2023-03-15T00:34:01;99162.88;;;5.95;62.34
39405;BME280;25121;51.090;17.038;2023-03-15T00:35:23;99150.88;;;5.82;62.35
39405;BME280;25121;51.090;17.038;2023-03-15T00:36:45;99151.19;;;5.88;62.43
39405;BME280;25121;51.090;17.038;2023-03-15T00:38:07;99165.19;;;5.90;62.41
39405;BME280;25121;51.090;17.038;2023-03-15T00:39:30;99172.53;;;5.88;62.48
39405;BME280;25121;51.090;17.038;2023-03-15T00:41:04;99162.53;;;5.81;62.31
39405;BME280;25121;51.090;17.038;2023-03-15T00:42:27;99180.88;;;5.85;62.47
39405;BME280;25121;51.090;17.038;2023-03-15T00:43:50;99190.69;;;5.84;62.48
39405;BME280;25121;51.090;17.038;2023-03-15T00:45:13;99186.53;;;5.81;62.61
39405;BME280;25121;51.090;17.038;2023-03-15T00:46:38;99182.69;;;5.76;62.72
39405;BME280;25121;51.090;17.038;2023-03-15T00:48:01;99176.03;;;5.72;62.77
39405;BME280;25121;51.090;17.038;2023-03-15T00:49:22;99195.69;;;5.79;62.76
39405;BME280;25121;51.090;17.038;2023-03-15T00:50:45;99172.84;;;5.68;62.80
39405;BME280;25121;51.090;17.038;2023-03-15T00:52:06;99189.03;;;5.75;62.75
39405;BME280;25121;51.090;17.038;2023-03-15T00:53:29;99193.19;;;5.77;62.73
39405;BME280;25121;51.090;17.038;2023-03-15T00:54:51;99184.03;;;5.72;62.72
39405;BME280;25121;51.090;17.038;2023-03-15T00:56:15;99193.34;;;5.76;62.71
39405;BME280;25121;51.090;17.038;2023-03-15T00:57:37;99185.19;;;5.69;62.64
39405;BME280;25121;51.090;17.038;2023-03-15T00:59:00;99186.84;;;5.70;62.76
39405;BME280;25121;51.090;17.038;2023-03-15T01:00:24;99190.34;;;5.71;62.50
39405;BME280;25121;51.090;17.038;2023-03-15T01:01:47;99196.69;;;5.70;62.56
39405;BME280;25121;51.090;17.038;2023-03-15T01:03:08;99193.34;;;5.68;62.59
39405;BME280;25121;51.090;17.038;2023-03-15T01:04:31;99202.50;;;5.65;62.43
39405;BME280;25121;51.090;17.038;2023-03-15T01:05:52;99169.53;;;5.50;62.29
39405;BME280;25121;51.090;17.038;2023-03-15T01:07:15;99190.69;;;5.59;62.62
39405;BME280;25121;51.090;17.038;2023-03-15T01:08:37;99202.66;;;5.64;62.34
39405;BME280;25121;51.090;17.038;2023-03-15T01:10:01;99207.34;;;5.61;62.48
39405;BME280;25121;51.090;17.038;2023-03-15T01:11:26;99205.50;;;5.62;62.42
39405;BME280;25121;51.090;17.038;2023-03-15T01:12:48;99205.84;;;5.59;62.54
39405;BME280;25121;51.090;17.038;2023-03-15T01:14:10;99205.19;;;5.57;62.52
39405;BME280;25121;51.090;17.038;2023-03-15T01:15:34;99214.69;;;5.59;62.43
39405;BME280;25121;51.090;17.038;2023-03-15T01:16:57;99205.66;;;5.60;62.24
39405;BME280;25121;51.090;17.038;2023-03-15T01:18:20;99214.69;;;5.59;62.27
39405;BME280;25121;51.090;17.038;2023-03-15T01:19:45;99214.69;;;5.59;62.36
39405;BME280;25121;51.090;17.038;2023-03-15T01:21:09;99212.00;;;5.59;62.40
39405;BME280;25121;51.090;17.038;2023-03-15T01:22:31;99192.66;;;5.41;62.48
39405;BME280;25121;51.090;17.038;2023-03-15T01:23:53;99222.81;;;5.58;62.28
39405;BME280;25121;51.090;17.038;2023-03-15T01:25:15;99221.50;;;5.62;62.09
39405;BME280;25121;51.090;17.038;2023-03-15T01:26:38;99228.69;;;5.61;62.34
39405;BME280;25121;51.090;17.038;2023-03-15T01:28:04;99226.00;;;5.61;62.45
39405;BME280;25121;51.090;17.038;2023-03-15T01:29:27;99229.50;;;5.62;62.13
39405;BME280;25121;51.090;17.038;2023-03-15T01:30:50;99227.19;;;5.59;62.18
39405;BME280;25121;51.090;17.038;2023-03-15T01:32:14;99211.97;;;5.51;61.93
39405;BME280;25121;51.090;17.038;2023-03-15T01:33:36;99227.00;;;5.60;61.83
39405;BME280;25121;51.090;17.038;2023-03-15T01:34:58;99227.66;;;5.63;61.91
39405;BME280;25121;51.090;17.038;2023-03-15T01:36:20;99227.19;;;5.59;61.93
39405;BME280;25121;51.090;17.038;2023-03-15T01:37:41;99228.00;;;5.59;62.07
39405;BME280;25121;51.090;17.038;2023-03-15T01:39:04;99230.47;;;5.61;61.92
39405;BME280;25121;51.090;17.038;2023-03-15T01:40:40;99233.81;;;5.63;61.97
39405;BME280;25121;51.090;17.038;2023-03-15T01:42:03;99220.84;;;5.60;61.80
39405;BME280;25121;51.090;17.038;2023-03-15T01:43:26;99242.66;;;5.64;61.85
39405;BME280;25121;51.090;17.038;2023-03-15T01:44:54;99236.34;;;5.65;61.52
39405;BME280;25121;51.090;17.038;2023-03-15T01:46:22;99238.19;;;5.64;61.56
39405;BME280;25121;51.090;17.038;2023-03-15T01:47:49;99242.31;;;5.58;61.42
39405;BME280;25121;51.090;17.038;2023-03-15T01:49:16;99236.81;;;5.60;61.39
39405;BME280;25121;51.090;17.038;2023-03-15T01:50:42;99259.66;;;5.63;61.24
39405;BME280;25121;51.090;17.038;2023-03-15T01:52:07;99258.00;;;5.61;61.34
39405;BME280;25121;51.090;17.038;2023-03-15T01:53:55;99259.97;;;5.59;61.20
39405;BME280;25121;51.090;17.038;2023-03-15T01:55:20;99245.28;;;5.47;61.15
39405;BME280;25121;51.090;17.038;2023-03-15T01:57:06;99263.81;;;5.57;61.03
39405;BME280;25121;51.090;17.038;2023-03-15T01:58:30;99259.66;;;5.54;60.93
39405;BME280;25121;51.090;17.038;2023-03-15T01:59:54;99269.28;;;5.55;60.93
39405;BME280;25121;51.090;17.038;2023-03-15T02:01:20;99264.78;;;5.56;61.14
39405;BME280;25121;51.090;17.038;2023-03-15T02:02:59;99278.94;;;5.56;61.05
39405;BME280;25121;51.090;17.038;2023-03-15T02:04:46;99293.28;;;5.55;61.25
39405;BME280;25121;51.090;17.038;2023-03-15T02:06:40;99241.75;;;5.22;61.10
39405;BME280;25121;51.090;17.038;2023-03-15T02:08:16;99267.72;;;5.36;61.15
39405;BME280;25121;51.090;17.038;2023-03-15T02:09:44;99297.09;;;5.53;61.13
39405;BME280;25121;51.090;17.038;2023-03-15T02:11:09;99296.59;;;5.49;61.06
39405;BME280;25121;51.090;17.038;2023-03-15T02:12:36;99296.44;;;5.51;61.04
39405;BME280;25121;51.090;17.038;2023-03-15T02:14:00;99306.09;;;5.52;60.94
39405;BME280;25121;51.090;17.038;2023-03-15T02:15:23;99306.25;;;5.50;60.65
39405;BME280;25121;51.090;17.038;2023-03-15T02:16:48;99300.72;;;5.44;60.49
39405;BME280;25121;51.090;17.038;2023-03-15T02:18:19;99311.59;;;5.50;60.64
39405;BME280;25121;51.090;17.038;2023-03-15T02:19:47;99319.59;;;5.50;60.46
39405;BME280;25121;51.090;17.038;2023-03-15T02:21:24;99318.91;;;5.48;60.32
39405;BME280;25121;51.090;17.038;2023-03-15T02:22:53;99317.94;;;5.49;60.42
39405;BME280;25121;51.090;17.038;2023-03-15T02:24:25;99319.91;;;5.47;60.26
39405;BME280;25121;51.090;17.038;2023-03-15T02:25:58;99325.25;;;5.47;60.23
39405;BME280;25121;51.090;17.038;2023-03-15T02:27:26;99322.41;;;5.49;60.24
39405;BME280;25121;51.090;17.038;2023-03-15T02:28:48;99316.25;;;5.48;60.32
39405;BME280;25121;51.090;17.038;2023-03-15T02:30:12;99316.91;;;5.42;60.38
39405;BME280;25121;51.090;17.038;2023-03-15T02:31:35;99326.75;;;5.50;60.30
39405;BME280;25121;51.090;17.038;2023-03-15T02:32:59;99339.72;;;5.45;60.33
39405;BME280;25121;51.090;17.038;2023-03-15T02:34:24;99348.22;;;5.48;60.21
39405;BME280;25121;51.090;17.038;2023-03-15T02:35:45;99350.19;;;5.46;60.09
39405;BME280;25121;51.090;17.038;2023-03-15T02:37:07;99350.03;;;5.39;60.25
39405;BME280;25121;51.090;17.038;2023-03-15T02:38:28;99360.22;;;5.44;60.22
39405;BME280;25121;51.090;17.038;2023-03-15T02:39:50;99344.66;;;5.31;60.22
39405;BME280;25121;51.090;17.038;2023-03-15T02:41:15;99350.31;;;5.36;60.27
39405;BME280;25121;51.090;17.038;2023-03-15T02:42:40;99356.19;;;5.40;60.23
39405;BME280;25121;51.090;17.038;2023-03-15T02:44:04;99360.84;;;5.38;60.34
39405;BME280;25121;51.090;17.038;2023-03-15T02:45:29;99362.13;;;5.34;59.86
39405;BME280;25121;51.090;17.038;2023-03-15T02:46:54;99362.47;;;5.31;60.12
39405;BME280;25121;51.090;17.038;2023-03-15T02:48:17;99369.47;;;5.32;60.24
39405;BME280;25121;51.090;17.038;2023-03-15T02:49:42;99369.63;;;5.30;60.19
39405;BME280;25121;51.090;17.038;2023-03-15T02:51:06;99341.38;;;5.11;60.36
39405;BME280;25121;51.090;17.038;2023-03-15T02:52:28;99377.41;;;5.24;60.48
39405;BME280;25121;51.090;17.038;2023-03-15T02:53:50;99377.41;;;5.24;60.54
39405;BME280;25121;51.090;17.038;2023-03-15T02:55:11;99392.06;;;5.20;60.46
39405;BME280;25121;51.090;17.038;2023-03-15T02:56:34;99385.88;;;5.19;60.63
39405;BME280;25121;51.090;17.038;2023-03-15T02:57:58;99372.03;;;5.15;60.66
39405;BME280;25121;51.090;17.038;2023-03-15T02:59:19;99387.88;;;5.17;60.87
39405;BME280;25121;51.090;17.038;2023-03-15T03:00:41;99371.16;;;5.07;60.65
39405;BME280;25121;51.090;17.038;2023-03-15T03:02:04;99376.69;;;5.13;60.89
39405;BME280;25121;51.090;17.038;2023-03-15T03:03:27;99387.88;;;5.17;60.86
39405;BME280;25121;51.090;17.038;2023-03-15T03:04:49;99384.34;;;5.16;60.76
39405;BME280;25121;51.090;17.038;2023-03-15T03:06:13;99372.19;;;5.14;60.64
39405;BME280;25121;51.090;17.038;2023-03-15T03:07:36;99380.72;;;5.17;60.92
39405;BME280;25121;51.090;17.038;2023-03-15T03:09:03;99381.56;;;5.18;60.90
39405;BME280;25121;51.090;17.038;2023-03-15T03:10:25;99383.38;;;5.17;60.77
39405;BME280;25121;51.090;17.038;2023-03-15T03:11:50;99379.91;;;5.17;60.79
39405;BME280;25121;51.090;17.038;2023-03-15T03:13:12;99372.72;;;5.17;60.61
39405;BME280;25121;51.090;17.038;2023-03-15T03:14:35;99385.22;;;5.17;60.53
39405;BME280;25121;51.090;17.038;2023-03-15T03:16:00;99380.34;;;5.12;60.53
39405;BME280;25121;51.090;17.038;2023-03-15T03:17:24;99384.53;;;5.15;60.42
39405;BME280;25121;51.090;17.038;2023-03-15T03:18:45;99389.88;;;5.15;60.41
39405;BME280;25121;51.090;17.038;2023-03-15T03:20:09;99393.34;;;5.15;60.50
39405;BME280;25121;51.090;17.038;2023-03-15T03:21:37;99382.34;;;5.10;60.54
39405;BME280;25121;51.090;17.038;2023-03-15T03:22:59;99391.00;;;5.12;60.50
39405;BME280;25121;51.090;17.038;2023-03-15T03:24:25;99393.47;;;5.06;60.28
39405;BME280;25121;51.090;17.038;2023-03-15T03:25:48;99400.97;;;5.10;60.34
39405;BME280;25121;51.090;17.038;2023-03-15T03:27:10;99392.78;;;5.04;60.34
39405;BME280;25121;51.090;17.038;2023-03-15T03:28:38;99393.41;;;4.97;60.35
39405;BME280;25121;51.090;17.038;2023-03-15T03:30:04;99413.63;;;5.08;60.48
39405;BME280;25121;51.090;17.038;2023-03-15T03:31:29;99401.31;;;5.07;60.38
39405;BME280;25121;51.090;17.038;2023-03-15T03:32:54;99402.28;;;5.06;60.51
39405;BME280;25121;51.090;17.038;2023-03-15T03:34:16;99407.47;;;5.08;60.48
39405;BME280;25121;51.090;17.038;2023-03-15T03:35:39;99406.09;;;5.04;60.42
39405;BME280;25121;51.090;17.038;2023-03-15T03:37:02;99407.59;;;5.06;60.71
39405;BME280;25121;51.090;17.038;2023-03-15T03:38:45;99407.59;;;5.06;60.21
39405;BME280;25121;51.090;17.038;2023-03-15T03:40:09;99415.59;;;5.06;60.31
39405;BME280;25121;51.090;17.038;2023-03-15T03:41:31;99419.94;;;5.07;60.50
39405;BME280;25121;51.090;17.038;2023-03-15T03:42:54;99419.59;;;5.02;60.68
39405;BME280;25121;51.090;17.038;2023-03-15T03:44:18;99423.75;;;5.05;60.68
39405;BME280;25121;51.090;17.038;2023-03-15T03:45:41;99425.41;;;5.06;60.70
39405;BME280;25121;51.090;17.038;2023-03-15T03:47:04;99424.91;;;5.02;60.40
39405;BME280;25121;51.090;17.038;2023-03-15T03:48:25;99439.78;;;5.13;60.39
39405;BME280;25121;51.090;17.038;2023-03-15T03:49:47;99442.44;;;5.13;60.52
39405;BME280;25121;51.090;17.038;2023-03-15T03:51:08;99435.75;;;5.09;60.43
39405;BME280;25121;51.090;17.038;2023-03-15T03:52:30;99443.44;;;5.12;60.57
39405;BME280;25121;51.090;17.038;2023-03-15T03:54:05;99431.56;;;5.06;60.22
39405;BME280;25121;51.090;17.038;2023-03-15T03:55:27;99438.78;;;5.14;60.55
39405;BME280;25121;51.090;17.038;2023-03-15T03:56:48;99439.47;;;5.16;60.39
39405;BME280;25121;51.090;17.038;2023-03-15T03:58:11;99437.81;;;5.15;60.21
39405;BME280;25121;51.090;17.038;2023-03-15T03:59:43;99441.16;;;5.17;60.19
39405;BME280;25121;51.090;17.038;2023-03-15T04:01:05;99443.97;;;5.15;60.21
39405;BME280;25121;51.090;17.038;2023-03-15T04:02:29;99437.94;;;5.13;60.23
39405;BME280;25121;51.090;17.038;2023-03-15T04:03:55;99430.88;;;5.04;60.63
39405;BME280;25121;51.090;17.038;2023-03-15T04:05:17;99445.94;;;5.13;60.31
39405;BME280;25121;51.090;17.038;2023-03-15T04:06:39;99443.28;;;5.13;60.41
39405;BME280;25121;51.090;17.038;2023-03-15T04:08:07;99442.31;;;5.14;60.38
39405;BME280;25121;51.090;17.038;2023-03-15T04:09:32;99441.63;;;5.12;60.34
39405;BME280;25121;51.090;17.038;2023-03-15T04:10:58;99429.38;;;5.02;60.12
39405;BME280;25121;51.090;17.038;2023-03-15T04:12:26;99395.25;;;4.79;60.25
39405;BME280;25121;51.090;17.038;2023-03-15T04:13:49;99440.72;;;5.04;60.25
39405;BME280;25121;51.090;17.038;2023-03-15T04:15:12;99447.56;;;5.06;60.40
39405;BME280;25121;51.090;17.038;2023-03-15T04:16:34;99442.69;;;5.02;60.12
39405;BME280;25121;51.090;17.038;2023-03-15T04:17:59;99455.53;;;5.06;60.17
39405;BME280;25121;51.090;17.038;2023-03-15T04:19:31;99453.06;;;5.05;60.09
39405;BME280;25121;51.090;17.038;2023-03-15T04:20:54;99460.03;;;5.06;60.09
39405;BME280;25121;51.090;17.038;2023-03-15T04:22:17;99451.53;;;5.02;60.02
39405;BME280;25121;51.090;17.038;2023-03-15T04:23:51;99456.88;;;5.02;60.36
39405;BME280;25121;51.090;17.038;2023-03-15T04:25:30;99439.53;;;4.80;60.24
39405;BME280;25121;51.090;17.038;2023-03-15T04:27:02;99475.97;;;4.97;60.27
39405;BME280;25121;51.090;17.038;2023-03-15T04:28:52;99460.06;;;4.88;60.37
39405;BME280;25121;51.090;17.038;2023-03-15T04:30:36;99486.63;;;4.97;60.45
39405;BME280;25121;51.090;17.038;2023-03-15T04:32:21;99495.56;;;4.96;60.29
39405;BME280;25121;51.090;17.038;2023-03-15T04:33:58;99464.28;;;4.72;60.17
39405;BME280;25121;51.090;17.038;2023-03-15T04:35:40;99500.38;;;4.93;60.17
39405;BME280;25121;51.090;17.038;2023-03-15T04:37:38;99512.88;;;4.92;60.30
39405;BME280;25121;51.090;17.038;2023-03-15T04:39:30;99501.66;;;4.89;60.21
39405;BME280;25121;51.090;17.038;2023-03-15T04:41:16;99496.28;;;4.81;60.07
39405;BME280;25121;51.090;17.038;2023-03-15T04:43:08;99502.28;;;4.83;60.19
39405;BME280;25121;51.090;17.038;2023-03-15T04:44:45;99503.13;;;4.83;59.90
39405;BME280;25121;51.090;17.038;2023-03-15T04:46:27;99495.44;;;4.80;60.26
39405;BME280;25121;51.090;17.038;2023-03-15T04:48:01;99503.81;;;4.85;60.19
39405;BME280;25121;51.090;17.038;2023-03-15T04:49:45;99504.78;;;4.84;60.11
39405;BME280;25121;51.090;17.038;2023-03-15T04:51:21;99500.47;;;4.83;60.03
39405;BME280;25121;51.090;17.038;2023-03-15T04:53:06;99504.28;;;4.81;60.30
39405;BME280;25121;51.090;17.038;2023-03-15T04:54:40;99503.97;;;4.84;59.95
39405;BME280;25121;51.090;17.038;2023-03-15T04:56:09;99508.44;;;4.83;60.00
39405;BME280;25121;51.090;17.038;2023-03-15T04:57:38;99503.44;;;4.80;59.93
39405;BME280;25121;51.090;17.038;2023-03-15T04:59:27;99510.28;;;4.83;60.15
39405;BME280;25121;51.090;17.038;2023-03-15T05:01:10;99516.56;;;4.82;60.10
39405;BME280;25121;51.090;17.038;2023-03-15T05:02:44;99487.31;;;4.64;60.08
39405;BME280;25121;51.090;17.038;2023-03-15T05:04:33;99519.88;;;4.75;60.07
39405;BME280;25121;51.090;17.038;2023-03-15T05:06:15;99499.09;;;4.61;60.11
39405;BME280;25121;51.090;17.038;2023-03-15T05:07:58;99513.84;;;4.73;60.01
39405;BME280;25121;51.090;17.038;2023-03-15T05:09:30;99531.19;;;4.78;59.88
39405;BME280;25121;51.090;17.038;2023-03-15T05:11:18;99523.22;;;4.78;59.83
39405;BME280;25121;51.090;17.038;2023-03-15T05:13:06;99533.03;;;4.77;60.01
39405;BME280;25121;51.090;17.038;2023-03-15T05:14:48;99532.47;;;4.73;60.15
39405;BME280;25121;51.090;17.038;2023-03-15T05:16:42;99527.28;;;4.72;59.98
39405;BME280;25121;51.090;17.038;2023-03-15T05:18:08;99528.28;;;4.71;60.01
39405;BME280;25121;51.090;17.038;2023-03-15T05:19:54;99530.13;;;4.70;60.02
39405;BME280;25121;51.090;17.038;2023-03-15T05:21:19;99515.44;;;4.66;59.81
39405;BME280;25121;51.090;17.038;2023-03-15T05:22:57;99534.16;;;4.74;59.85
39405;BME280;25121;51.090;17.038;2023-03-15T05:24:50;99533.63;;;4.71;60.03
39405;BME280;25121;51.090;17.038;2023-03-15T05:26:29;99537.81;;;4.73;59.95
39405;BME280;25121;51.090;17.038;2023-03-15T05:28:25;99541.28;;;4.74;60.07
39405;BME280;25121;51.090;17.038;2023-03-15T05:30:07;99556.00;;;4.78;60.03
39405;BME280;25121;51.090;17.038;2023-03-15T05:31:49;99557.50;;;4.81;59.97
39405;BME280;25121;51.090;17.038;2023-03-15T05:33:23;99555.16;;;4.78;59.95
39405;BME280;25121;51.090;17.038;2023-03-15T05:35:09;99564.03;;;4.86;60.01
39405;BME280;25121;51.090;17.038;2023-03-15T05:36:54;99566.72;;;4.86;59.75
39405;BME280;25121;51.090;17.038;2023-03-15T05:38:30;99577.59;;;4.93;59.76
39405;BME280;25121;51.090;17.038;2023-03-15T05:40:24;99574.09;;;4.92;59.85
39405;BME280;25121;51.090;17.038;2023-03-15T05:41:58;99566.56;;;4.88;59.71
39405;BME280;25121;51.090;17.038;2023-03-15T05:43:47;99591.53;;;5.05;59.44
39405;BME280;25121;51.090;17.038;2023-03-15T05:45:28;99591.53;;;5.05;59.61
39405;BME280;25121;51.090;17.038;2023-03-15T05:47:17;99598.75;;;5.12;59.26
39405;BME280;25121;51.090;17.038;2023-03-15T05:48:58;99598.31;;;5.17;59.24
39405;BME280;25121;51.090;17.038;2023-03-15T05:50:49;99599.66;;;5.21;59.14
39405;BME280;25121;51.090;17.038;2023-03-15T05:52:31;99602.19;;;5.23;59.02
39405;BME280;25121;51.090;17.038;2023-03-15T05:54:32;99606.75;;;5.30;58.80
39405;BME280;25121;51.090;17.038;2023-03-15T05:55:54;99609.94;;;5.34;58.89
39405;BME280;25121;51.090;17.038;2023-03-15T05:57:32;99606.81;;;5.38;58.85
39405;BME280;25121;51.090;17.038;2023-03-15T05:59:33;99621.50;;;5.43;58.88
39405;BME280;25121;51.090;17.038;2023-03-15T06:01:21;99619.34;;;5.46;58.86
39405;BME280;25121;51.090;17.038;2023-03-15T06:03:03;99618.75;;;5.52;58.64
39405;BME280;25121;51.090;17.038;2023-03-15T06:04:37;99622.63;;;5.58;58.65
39405;BME280;25121;51.090;17.038;2023-03-15T06:05:59;99632.81;;;5.63;58.32
39405;BME280;25121;51.090;17.038;2023-03-15T06:07:35;99631.38;;;5.68;58.27
39405;BME280;25121;51.090;17.038;2023-03-15T06:08:58;99632.56;;;5.74;58.25
39405;BME280;25121;51.090;17.038;2023-03-15T06:10:20;99631.97;;;5.80;58.14
39405;BME280;25121;51.090;17.038;2023-03-15T06:11:43;99627.81;;;5.86;57.98
39405;BME280;25121;51.090;17.038;2023-03-15T06:13:06;99638.72;;;5.92;57.77
39405;BME280;25121;51.090;17.038;2023-03-15T06:14:28;99641.63;;;5.99;57.62
39405;BME280;25121;51.090;17.038;2023-03-15T06:15:55;99646.31;;;6.05;57.37
39405;BME280;25121;51.090;17.038;2023-03-15T06:17:17;99645.19;;;6.08;57.19
39405;BME280;25121;51.090;17.038;2023-03-15T06:18:40;99644.56;;;6.14;57.05
39405;BME280;25121;51.090;17.038;2023-03-15T06:20:04;99646.91;;;6.17;56.80
39405;BME280;25121;51.090;17.038;2023-03-15T06:21:26;99635.59;;;6.23;56.76
39405;BME280;25121;51.090;17.038;2023-03-15T06:22:48;99645.69;;;6.37;56.49
39405;BME280;25121;51.090;17.038;2023-03-15T06:24:20;99647.88;;;6.42;56.39
39405;BME280;25121;51.090;17.038;2023-03-15T06:25:42;99655.75;;;6.52;55.98
39405;BME280;25121;51.090;17.038;2023-03-15T06:27:05;99657.97;;;6.56;55.66
39405;BME280;25121;51.090;17.038;2023-03-15T06:28:28;99660.81;;;6.63;55.43
39405;BME280;25121;51.090;17.038;2023-03-15T06:29:53;99662.84;;;6.69;55.58
39405;BME280;25121;51.090;17.038;2023-03-15T06:31:16;99659.03;;;6.72;55.31
39405;BME280;25121;51.090;17.038;2023-03-15T06:32:45;99673.22;;;6.80;55.17
39405;BME280;25121;51.090;17.038;2023-03-15T06:34:07;99662.91;;;6.85;54.88
39405;BME280;25121;51.090;17.038;2023-03-15T06:35:31;99667.75;;;6.90;55.10
39405;BME280;25121;51.090;17.038;2023-03-15T06:36:53;99666.94;;;6.98;54.82
39405;BME280;25121;51.090;17.038;2023-03-15T06:38:15;99662.63;;;7.05;54.62
39405;BME280;25121;51.090;17.038;2023-03-15T06:39:38;99665.34;;;7.13;54.49
39405;BME280;25121;51.090;17.038;2023-03-15T06:40:59;99662.81;;;7.20;54.22
39405;BME280;25121;51.090;17.038;2023-03-15T06:42:22;99675.72;;;7.32;53.85
39405;BME280;25121;51.090;17.038;2023-03-15T06:43:44;99671.03;;;7.43;53.69
39405;BME280;25121;51.090;17.038;2023-03-15T06:45:08;99665.19;;;7.47;53.32
39405;BME280;25121;51.090;17.038;2023-03-15T06:46:30;99669.22;;;7.60;53.07
39405;BME280;25121;51.090;17.038;2023-03-15T06:47:52;99675.09;;;7.71;53.06
39405;BME280;25121;51.090;17.038;2023-03-15T06:49:14;99676.09;;;7.79;52.65
39405;BME280;25121;51.090;17.038;2023-03-15T06:50:38;99687.78;;;7.94;52.45
39405;BME280;25121;51.090;17.038;2023-03-15T06:52:07;99678.91;;;8.02;52.39
39405;BME280;25121;51.090;17.038;2023-03-15T06:53:29;99664.88;;;8.08;51.99
39405;BME280;25121;51.090;17.038;2023-03-15T06:54:52;99679.41;;;8.30;51.60
39405;BME280;25121;51.090;17.038;2023-03-15T06:56:14;99693.09;;;8.43;51.37
39405;BME280;25121;51.090;17.038;2023-03-15T06:57:36;99686.06;;;8.50;51.24
39405;BME280;25121;51.090;17.038;2023-03-15T06:58:58;99684.69;;;8.62;51.21
39405;BME280;25121;51.090;17.038;2023-03-15T07:00:21;99694.03;;;8.75;50.77
39405;BME280;25121;51.090;17.038;2023-03-15T07:01:43;99688.78;;;8.81;50.54
39405;BME280;25121;51.090;17.038;2023-03-15T07:03:05;99688.28;;;8.86;50.14
39405;BME280;25121;51.090;17.038;2023-03-15T07:04:27;99695.94;;;8.97;50.08
39405;BME280;25121;51.090;17.038;2023-03-15T07:05:52;99699.59;;;9.04;49.73
39405;BME280;25121;51.090;17.038;2023-03-15T07:07:15;99688.00;;;9.04;49.61
39405;BME280;25121;51.090;17.038;2023-03-15T07:08:37;99695.19;;;9.12;49.45
39405;BME280;25121;51.090;17.038;2023-03-15T07:10:00;99699.13;;;9.24;49.17
39405;BME280;25121;51.090;17.038;2023-03-15T07:11:21;99700.09;;;9.31;49.00
39405;BME280;25121;51.090;17.038;2023-03-15T07:12:43;99692.06;;;9.31;48.75
39405;BME280;25121;51.090;17.038;2023-03-15T07:14:05;99691.72;;;9.34;48.56
39405;BME280;25121;51.090;17.038;2023-03-15T07:15:28;99704.06;;;9.43;48.48
39405;BME280;25121;51.090;17.038;2023-03-15T07:16:50;99694.34;;;9.42;48.91
39405;BME280;25121;51.090;17.038;2023-03-15T07:18:12;99710.69;;;9.56;48.22
39405;BME280;25121;51.090;17.038;2023-03-15T07:19:35;99706.94;;;9.65;48.07
39405;BME280;25121;51.090;17.038;2023-03-15T07:21:14;99707.06;;;9.72;48.07
39405;BME280;25121;51.090;17.038;2023-03-15T07:22:37;99696.34;;;9.72;47.92
39405;BME280;25121;51.090;17.038;2023-03-15T07:23:59;99696.25;;;9.80;47.69
39405;BME280;25121;51.090;17.038;2023-03-15T07:25:22;99708.41;;;9.90;47.70
39405;BME280;25121;51.090;17.038;2023-03-15T07:26:45;99687.75;;;9.91;47.43
39405;BME280;25121;51.090;17.038;2023-03-15T07:28:07;99687.06;;;9.97;47.04
39405;BME280;25121;51.090;17.038;2023-03-15T07:29:31;99715.72;;;10.20;46.64
39405;BME280;25121;51.090;17.038;2023-03-15T07:30:55;99675.97;;;10.15;46.53
39405;BME280;25121;51.090;17.038;2023-03-15T07:32:16;99724.97;;;10.55;46.01
39405;BME280;25121;51.090;17.038;2023-03-15T07:33:42;99720.16;;;10.65;45.83
39405;BME280;25121;51.090;17.038;2023-03-15T07:35:05;99721.34;;;10.77;45.73
39405;BME280;25121;51.090;17.038;2023-03-15T07:36:29;99721.84;;;10.96;45.38
39405;BME280;25121;51.090;17.038;2023-03-15T07:37:52;99733.03;;;11.14;45.01
39405;BME280;25121;51.090;17.038;2023-03-15T07:39:16;99731.91;;;11.24;44.60
39405;BME280;25121;51.090;17.038;2023-03-15T07:40:42;99730.28;;;11.44;44.70
39405;BME280;25121;51.090;17.038;2023-03-15T07:42:04;99732.78;;;11.46;44.46
39405;BME280;25121;51.090;17.038;2023-03-15T07:43:33;99738.56;;;11.64;44.10
39405;BME280;25121;51.090;17.038;2023-03-15T07:45:06;99747.09;;;11.68;44.18